createdAt,value
2018-12-22T00:00:54.948Z,15.24
2018-12-22T00:01:56.725Z,15.23
2018-12-22T00:02:58.507Z,15.23
2018-12-22T00:04:00.429Z,15.22
2018-12-22T00:05:02.319Z,15.22
2018-12-22T00:06:04.074Z,15.22
2018-12-22T00:07:05.830Z,15.21
2018-12-22T00:08:07.597Z,15.22
2018-12-22T00:09:09.377Z,15.23
2018-12-22T00:10:12.208Z,15.23
2018-12-22T00:11:13.992Z,15.21
2018-12-22T00:12:15.778Z,15.21
2018-12-22T00:13:17.565Z,15.22
2018-12-22T00:14:19.333Z,15.21
2018-12-22T00:15:21.089Z,15.21
2018-12-22T00:16:22.864Z,15.20
2018-12-22T00:17:24.614Z,15.21
2018-12-22T00:18:26.397Z,15.21
2018-12-22T00:19:28.168Z,15.22
2018-12-22T00:20:29.937Z,15.20
2018-12-22T00:21:31.700Z,15.20
2018-12-22T00:22:33.451Z,15.21
2018-12-22T00:23:35.249Z,15.21
2018-12-22T00:24:37.017Z,15.20
2018-12-22T00:25:38.763Z,15.20
2018-12-22T00:26:40.547Z,15.20
2018-12-22T00:27:42.323Z,15.21
2018-12-22T00:28:44.121Z,15.20
2018-12-22T00:29:45.873Z,15.20
2018-12-22T00:30:47.627Z,15.20
2018-12-22T00:31:49.488Z,15.20
2018-12-22T00:32:51.239Z,15.19
2018-12-22T00:33:53.020Z,15.20
2018-12-22T00:34:55.116Z,15.20
2018-12-22T00:35:56.882Z,15.21
2018-12-22T00:36:58.656Z,15.20
2018-12-22T00:38:00.411Z,15.20
2018-12-22T00:39:02.191Z,15.20
2018-12-22T00:40:03.972Z,15.20
2018-12-22T00:41:05.728Z,15.20
2018-12-22T00:42:07.485Z,15.20
2018-12-22T00:43:09.235Z,15.19
2018-12-22T00:44:11.036Z,15.19
2018-12-22T00:45:12.813Z,15.18
2018-12-22T00:46:14.594Z,15.18
2018-12-22T00:47:16.433Z,15.18
2018-12-22T00:48:18.187Z,15.17
2018-12-22T00:49:21.248Z,15.17
2018-12-22T00:50:23.004Z,15.18
2018-12-22T00:51:24.750Z,15.18
2018-12-22T00:52:27.023Z,15.19
2018-12-22T00:53:28.845Z,15.19
2018-12-22T00:54:30.621Z,15.18
2018-12-22T00:55:32.396Z,15.18
2018-12-22T00:56:34.154Z,15.18
2018-12-22T00:57:35.914Z,15.18
2018-12-22T00:58:37.668Z,15.18
2018-12-22T00:59:39.468Z,15.18
2018-12-22T01:00:41.230Z,15.18
2018-12-22T01:01:42.996Z,15.18
2018-12-22T01:02:44.759Z,15.17
2018-12-22T01:03:46.516Z,15.17
2018-12-22T01:04:48.319Z,15.18
2018-12-22T01:05:50.081Z,15.19
2018-12-22T01:06:52.793Z,15.19
2018-12-22T01:07:54.800Z,15.18
2018-12-22T01:08:56.576Z,15.18
2018-12-22T01:09:58.353Z,15.18
2018-12-22T01:11:00.109Z,15.18
2018-12-22T01:12:01.964Z,15.17
2018-12-22T01:13:03.760Z,15.17
2018-12-22T01:14:05.507Z,15.16
2018-12-22T01:15:07.364Z,15.17
2018-12-22T01:16:09.127Z,15.16
2018-12-22T01:17:10.911Z,15.18
2018-12-22T01:18:12.707Z,15.18
2018-12-22T01:20:22.508Z,15.18
2018-12-22T01:21:24.255Z,15.17
2018-12-22T01:22:26.029Z,15.17
2018-12-22T01:23:27.782Z,15.17
2018-12-22T01:24:29.536Z,15.17
2018-12-22T01:25:31.313Z,15.17
2018-12-22T01:26:33.061Z,15.17
2018-12-22T01:27:34.821Z,15.17
2018-12-22T01:28:39.517Z,15.16
2018-12-22T01:29:40.339Z,15.16
2018-12-22T01:30:42.109Z,15.17
2018-12-22T01:31:43.865Z,15.17
2018-12-22T01:32:45.619Z,15.17
2018-12-22T01:33:47.363Z,15.17
2018-12-22T01:34:49.142Z,15.17
2018-12-22T01:35:50.927Z,15.16
2018-12-22T01:36:52.696Z,15.16
2018-12-22T01:37:54.439Z,15.16
2018-12-22T01:38:56.202Z,15.16
2018-12-22T01:39:57.950Z,15.15
2018-12-22T01:40:59.720Z,15.16
2018-12-22T01:42:01.476Z,15.15
2018-12-22T01:43:03.223Z,15.15
2018-12-22T01:44:04.978Z,15.16
2018-12-22T01:45:06.821Z,15.16
2018-12-22T01:46:08.599Z,15.17
2018-12-22T01:47:10.355Z,15.15
2018-12-22T01:48:12.109Z,15.16
2018-12-22T01:49:13.860Z,15.16
2018-12-22T01:50:15.633Z,15.16
2018-12-22T01:51:17.477Z,15.15
2018-12-22T01:52:19.224Z,15.16
2018-12-22T01:53:20.996Z,15.16
2018-12-22T01:54:22.762Z,15.16
2018-12-22T01:55:24.515Z,15.15
2018-12-22T01:56:26.303Z,15.15
2018-12-22T01:57:28.053Z,15.16
2018-12-22T01:58:29.816Z,15.17
2018-12-22T01:59:31.577Z,15.16
2018-12-22T02:00:33.353Z,15.15
2018-12-22T02:01:35.137Z,15.17
2018-12-22T02:02:36.898Z,15.16
2018-12-22T02:03:38.637Z,15.14
2018-12-22T02:04:40.391Z,15.15
2018-12-22T02:05:42.142Z,15.15
2018-12-22T02:06:43.925Z,15.15
2018-12-22T02:07:45.693Z,15.16
2018-12-22T02:08:47.454Z,15.15
2018-12-22T02:09:50.566Z,15.16
2018-12-22T02:10:52.312Z,15.16
2018-12-22T02:11:54.104Z,15.16
2018-12-22T02:12:55.854Z,15.17
2018-12-22T02:13:58.005Z,15.16
2018-12-22T02:14:59.803Z,15.15
2018-12-22T02:16:01.560Z,15.15
2018-12-22T02:17:03.336Z,15.16
2018-12-22T02:18:05.112Z,15.16
2018-12-22T02:19:06.862Z,15.16
2018-12-22T02:20:08.621Z,15.17
2018-12-22T02:21:10.393Z,15.16
2018-12-22T02:22:12.172Z,15.17
2018-12-22T02:23:13.912Z,15.16
2018-12-22T02:24:15.680Z,15.16
2018-12-22T02:25:17.444Z,15.17
2018-12-22T02:26:19.206Z,15.18
2018-12-22T02:27:20.992Z,15.16
2018-12-22T02:28:22.759Z,15.17
2018-12-22T02:29:24.526Z,15.16
2018-12-22T02:30:26.284Z,15.16
2018-12-22T02:31:28.023Z,15.17
2018-12-22T02:32:29.816Z,15.17
2018-12-22T02:33:31.593Z,15.17
2018-12-22T02:34:33.343Z,15.16
2018-12-22T02:35:35.102Z,15.17
2018-12-22T02:36:36.854Z,15.18
2018-12-22T02:37:38.624Z,15.17
2018-12-22T02:38:40.367Z,15.17
2018-12-22T02:39:42.122Z,15.17
2018-12-22T02:40:43.874Z,15.18
2018-12-22T02:41:47.168Z,15.18
2018-12-22T02:42:48.927Z,15.21
2018-12-22T02:43:50.671Z,15.24
2018-12-22T02:44:52.432Z,15.27
2018-12-22T02:45:54.191Z,15.32
2018-12-22T02:46:55.963Z,15.35
2018-12-22T02:47:57.768Z,15.38
2018-12-22T02:49:00.661Z,15.41
2018-12-22T02:50:02.412Z,15.44
2018-12-22T02:51:04.151Z,15.45
2018-12-22T02:52:05.923Z,15.48
2018-12-22T02:53:07.719Z,15.50
2018-12-22T02:54:09.629Z,15.52
2018-12-22T02:55:11.382Z,15.54
2018-12-22T02:56:13.166Z,15.54
2018-12-22T02:57:14.925Z,15.56
2018-12-22T02:58:16.715Z,15.58
2018-12-22T02:59:18.462Z,15.59
2018-12-22T03:00:20.231Z,15.59
2018-12-22T03:01:21.980Z,15.61
2018-12-22T03:02:23.731Z,15.59
2018-12-22T03:03:25.508Z,15.60
2018-12-22T03:04:27.259Z,15.60
2018-12-22T03:05:29.011Z,15.62
2018-12-22T03:06:30.778Z,15.60
2018-12-22T03:07:32.528Z,15.60
2018-12-22T03:08:34.297Z,15.61
2018-12-22T03:09:36.057Z,15.62
2018-12-22T03:10:37.825Z,15.62
2018-12-22T03:11:39.577Z,15.61
2018-12-22T03:12:41.322Z,15.60
2018-12-22T03:13:43.214Z,15.61
2018-12-22T03:14:44.976Z,15.62
2018-12-22T03:15:46.758Z,15.60
2018-12-22T03:16:48.502Z,15.61
2018-12-22T03:17:50.781Z,15.60
2018-12-22T03:18:52.567Z,15.61
2018-12-22T03:19:54.320Z,15.60
2018-12-22T03:20:56.071Z,15.61
2018-12-22T03:21:57.855Z,15.60
2018-12-22T03:22:59.652Z,15.61
2018-12-22T03:24:01.498Z,15.59
2018-12-22T03:25:03.369Z,15.59
2018-12-22T03:26:05.156Z,15.59
2018-12-22T03:27:07.359Z,15.58
2018-12-22T03:28:09.127Z,15.59
2018-12-22T03:29:15.437Z,15.57
2018-12-22T03:30:17.080Z,15.58
2018-12-22T03:31:18.833Z,15.58
2018-12-22T03:32:20.595Z,15.57
2018-12-22T03:33:22.340Z,15.57
2018-12-22T03:34:25.067Z,15.56
2018-12-22T03:35:28.058Z,15.56
2018-12-22T03:36:30.832Z,15.57
2018-12-22T03:37:32.589Z,15.57
2018-12-22T03:38:37.200Z,15.57
2018-12-22T03:39:38.992Z,15.56
2018-12-22T03:40:41.239Z,15.56
2018-12-22T03:41:42.974Z,15.58
2018-12-22T03:42:44.720Z,15.57
2018-12-22T03:43:46.500Z,15.56
2018-12-22T03:44:48.310Z,15.55
2018-12-22T03:45:50.062Z,15.55
2018-12-22T03:46:51.804Z,15.55
2018-12-22T03:47:53.575Z,15.56
2018-12-22T03:48:55.337Z,15.55
2018-12-22T03:49:57.083Z,15.56
2018-12-22T03:50:59.034Z,15.57
2018-12-22T03:52:00.962Z,15.57
2018-12-22T03:53:02.711Z,15.57
2018-12-22T03:54:04.464Z,15.55
2018-12-22T03:55:06.232Z,15.56
2018-12-22T03:56:07.998Z,15.56
2018-12-22T03:57:09.753Z,15.55
2018-12-22T03:58:11.510Z,15.55
2018-12-22T03:59:13.257Z,15.55
2018-12-22T04:00:15.036Z,15.55
2018-12-22T04:01:16.790Z,15.57
2018-12-22T04:02:18.550Z,15.55
2018-12-22T04:03:20.312Z,15.55
2018-12-22T04:04:22.063Z,15.55
2018-12-22T04:05:23.837Z,15.57
2018-12-22T04:06:25.598Z,15.56
2018-12-22T04:07:27.355Z,15.55
2018-12-22T04:08:31.054Z,15.56
2018-12-22T04:09:32.883Z,15.56
2018-12-22T04:10:34.663Z,15.56
2018-12-22T04:11:36.423Z,15.55
2018-12-22T04:12:38.176Z,15.55
2018-12-22T04:13:39.933Z,15.55
2018-12-22T04:14:41.690Z,15.55
2018-12-22T04:15:43.486Z,15.54
2018-12-22T04:16:45.246Z,15.56
2018-12-22T04:17:46.991Z,15.55
2018-12-22T04:18:48.750Z,15.53
2018-12-22T04:19:50.517Z,15.56
2018-12-22T04:20:52.397Z,15.55
2018-12-22T04:21:54.350Z,15.55
2018-12-22T04:22:56.122Z,15.54
2018-12-22T04:23:57.898Z,15.55
2018-12-22T04:24:59.643Z,15.55
2018-12-22T04:26:01.409Z,15.55
2018-12-22T04:27:03.189Z,15.55
2018-12-22T04:28:04.940Z,15.55
2018-12-22T04:29:06.699Z,15.55
2018-12-22T04:30:08.459Z,15.55
2018-12-22T04:31:11.389Z,15.55
2018-12-22T04:32:13.272Z,15.55
2018-12-22T04:33:15.146Z,15.54
2018-12-22T04:34:17.123Z,15.55
2018-12-22T04:35:18.875Z,15.55
2018-12-22T04:36:20.661Z,15.55
2018-12-22T04:37:22.405Z,15.55
2018-12-22T04:38:24.155Z,15.54
2018-12-22T04:39:25.916Z,15.55
2018-12-22T04:40:27.673Z,15.55
2018-12-22T04:41:29.459Z,15.56
2018-12-22T04:42:31.215Z,15.54
2018-12-22T04:43:32.961Z,15.56
2018-12-22T04:44:34.723Z,15.56
2018-12-22T04:45:36.472Z,15.54
2018-12-22T04:46:38.255Z,15.56
2018-12-22T04:47:40.116Z,15.55
2018-12-22T04:48:42.008Z,15.55
2018-12-22T04:49:43.867Z,15.53
2018-12-22T04:50:45.614Z,15.53
2018-12-22T04:51:47.392Z,15.55
2018-12-22T04:52:49.157Z,15.55
2018-12-22T04:53:50.908Z,15.56
2018-12-22T04:54:52.716Z,15.56
2018-12-22T04:55:54.469Z,15.55
2018-12-22T04:56:56.259Z,15.54
2018-12-22T04:57:59.175Z,15.55
2018-12-22T04:59:00.930Z,15.54
2018-12-22T05:00:04.053Z,15.55
2018-12-22T05:01:05.810Z,15.53
2018-12-22T05:02:07.608Z,15.55
2018-12-22T05:03:09.368Z,15.56
2018-12-22T05:04:11.147Z,15.55
2018-12-22T05:05:12.895Z,15.55
2018-12-22T05:06:14.663Z,15.54
2018-12-22T05:07:16.453Z,15.55
2018-12-22T05:08:18.215Z,15.56
2018-12-22T05:09:19.970Z,15.54
2018-12-22T05:10:23.244Z,15.55
2018-12-22T05:11:25.004Z,15.55
2018-12-22T05:12:26.777Z,15.55
2018-12-22T05:13:28.557Z,15.56
2018-12-22T05:14:30.319Z,15.56
2018-12-22T05:15:32.094Z,15.55
2018-12-22T05:16:33.846Z,15.54
2018-12-22T05:17:35.633Z,15.55
2018-12-22T05:18:43.861Z,15.56
2018-12-22T05:19:45.664Z,15.55
2018-12-22T05:20:47.460Z,15.56
2018-12-22T05:21:49.222Z,15.56
2018-12-22T05:22:51.023Z,15.56
2018-12-22T05:23:52.778Z,15.57
2018-12-22T05:24:54.519Z,15.58
2018-12-22T05:25:56.279Z,15.57
2018-12-22T05:26:58.033Z,15.59
2018-12-22T05:27:59.813Z,15.57
2018-12-22T05:29:01.567Z,15.59
2018-12-22T05:30:03.351Z,15.59
2018-12-22T05:31:05.121Z,15.59
2018-12-22T05:32:06.975Z,15.59
2018-12-22T05:33:10.119Z,15.61
2018-12-22T05:34:11.869Z,15.62
2018-12-22T05:35:13.649Z,15.63
2018-12-22T05:36:15.394Z,15.62
2018-12-22T05:37:17.210Z,15.64
2018-12-22T05:38:19.057Z,15.64
2018-12-22T05:39:20.845Z,15.66
2018-12-22T05:40:22.810Z,15.65
2018-12-22T05:41:26.020Z,15.66
2018-12-22T05:42:27.766Z,15.68
2018-12-22T05:43:29.547Z,15.67
2018-12-22T05:44:31.403Z,15.67
2018-12-22T05:45:33.216Z,15.68
2018-12-22T05:46:35.067Z,15.68
2018-12-22T05:47:36.813Z,15.68
2018-12-22T05:48:38.604Z,15.68
2018-12-22T05:49:40.358Z,15.68
2018-12-22T05:50:42.121Z,15.67
2018-12-22T05:51:43.881Z,15.66
2018-12-22T05:52:45.623Z,15.67
2018-12-22T05:53:47.407Z,15.67
2018-12-22T05:54:49.158Z,15.67
2018-12-22T05:55:50.899Z,15.67
2018-12-22T05:56:52.669Z,15.66
2018-12-22T05:57:54.418Z,15.66
2018-12-22T05:58:56.201Z,15.66
2018-12-22T06:00:00.825Z,15.65
2018-12-22T06:01:01.743Z,15.65
2018-12-22T06:02:03.612Z,15.65
2018-12-22T06:03:05.492Z,15.63
2018-12-22T06:04:07.310Z,15.63
2018-12-22T06:05:09.067Z,15.63
2018-12-22T06:06:10.832Z,15.63
2018-12-22T06:07:12.587Z,15.63
2018-12-22T06:08:14.345Z,15.63
2018-12-22T06:09:16.328Z,15.62
2018-12-22T06:10:18.085Z,15.60
2018-12-22T06:11:19.853Z,15.62
2018-12-22T06:12:21.614Z,15.60
2018-12-22T06:13:25.093Z,15.59
2018-12-22T06:14:26.926Z,15.58
2018-12-22T06:15:28.671Z,15.59
2018-12-22T06:16:30.438Z,15.58
2018-12-22T06:17:32.192Z,15.59
2018-12-22T06:18:33.947Z,15.59
2018-12-22T06:19:35.733Z,15.57
2018-12-22T06:20:37.510Z,15.57
2018-12-22T06:21:40.466Z,15.57
2018-12-22T06:22:42.250Z,15.57
2018-12-22T06:23:44.079Z,15.56
2018-12-22T06:24:46.059Z,15.55
2018-12-22T06:25:48.682Z,15.55
2018-12-22T06:26:50.418Z,15.53
2018-12-22T06:27:52.185Z,15.53
2018-12-22T06:28:53.934Z,15.54
2018-12-22T06:29:55.727Z,15.54
2018-12-22T06:30:57.478Z,15.53
2018-12-22T06:31:59.223Z,15.52
2018-12-22T06:33:00.974Z,15.53
2018-12-22T06:34:02.713Z,15.52
2018-12-22T06:35:04.470Z,15.52
2018-12-22T06:36:06.225Z,15.52
2018-12-22T06:37:08.005Z,15.51
2018-12-22T06:38:09.768Z,15.51
2018-12-22T06:39:11.535Z,15.52
2018-12-22T06:40:13.323Z,15.52
2018-12-22T06:41:15.427Z,15.52
2018-12-22T06:42:17.214Z,15.50
2018-12-22T06:44:27.107Z,15.50
2018-12-22T06:45:28.893Z,15.49
2018-12-22T06:46:30.678Z,15.50
2018-12-22T06:47:32.439Z,15.49
2018-12-22T06:48:34.187Z,15.49
2018-12-22T06:49:35.936Z,15.48
2018-12-22T06:50:37.733Z,15.47
2018-12-22T06:51:39.528Z,15.48
2018-12-22T06:52:41.325Z,15.48
2018-12-22T06:53:43.114Z,15.47
2018-12-22T06:54:44.934Z,15.47
2018-12-22T06:55:46.757Z,15.47
2018-12-22T06:56:48.518Z,15.47
2018-12-22T06:57:50.262Z,15.46
2018-12-22T06:58:52.058Z,15.46
2018-12-22T06:59:53.817Z,15.45
2018-12-22T07:00:57.176Z,15.46
2018-12-22T07:01:58.937Z,15.45
2018-12-22T07:03:00.701Z,15.45
2018-12-22T07:04:02.547Z,15.43
2018-12-22T07:05:04.318Z,15.43
2018-12-22T07:06:06.091Z,15.45
2018-12-22T07:07:07.924Z,15.43
2018-12-22T07:08:09.726Z,15.43
2018-12-22T07:09:11.515Z,15.44
2018-12-22T07:10:13.319Z,15.43
2018-12-22T07:11:15.088Z,15.42
2018-12-22T07:12:16.900Z,15.43
2018-12-22T07:13:18.665Z,15.42
2018-12-22T07:14:20.423Z,15.42
2018-12-22T07:15:22.183Z,15.43
2018-12-22T07:16:23.963Z,15.42
2018-12-22T07:17:25.706Z,15.42
2018-12-22T07:18:27.463Z,15.42
2018-12-22T07:19:29.222Z,15.40
2018-12-22T07:20:31.076Z,15.40
2018-12-22T07:21:32.877Z,15.41
2018-12-22T07:22:34.632Z,15.41
2018-12-22T07:23:36.399Z,15.41
2018-12-22T07:24:38.425Z,15.42
2018-12-22T07:25:40.255Z,15.41
2018-12-22T07:26:42.044Z,15.41
2018-12-22T07:27:43.802Z,15.41
2018-12-22T07:28:45.577Z,15.40
2018-12-22T07:29:47.341Z,15.40
2018-12-22T07:30:49.110Z,15.41
2018-12-22T07:31:50.921Z,15.40
2018-12-22T07:32:56.832Z,15.40
2018-12-22T07:33:56.476Z,15.40
2018-12-22T07:34:58.264Z,15.39
2018-12-22T07:36:00.007Z,15.40
2018-12-22T07:37:01.786Z,15.39
2018-12-22T07:38:03.552Z,15.39
2018-12-22T07:39:05.313Z,15.38
2018-12-22T07:40:07.060Z,15.38
2018-12-22T07:41:08.829Z,15.39
2018-12-22T07:42:11.137Z,15.37
2018-12-22T07:43:13.417Z,15.39
2018-12-22T07:44:15.213Z,15.38
2018-12-22T07:45:16.966Z,15.39
2018-12-22T07:46:18.726Z,15.39
2018-12-22T07:47:20.562Z,15.38
2018-12-22T07:48:23.071Z,15.38
2018-12-22T07:49:24.825Z,15.38
2018-12-22T07:50:26.600Z,15.37
2018-12-22T07:51:28.346Z,15.38
2018-12-22T07:52:30.142Z,15.37
2018-12-22T07:53:31.917Z,15.37
2018-12-22T07:54:33.674Z,15.36
2018-12-22T07:55:35.444Z,15.37
2018-12-22T07:56:37.186Z,15.37
2018-12-22T07:57:38.963Z,15.37
2018-12-22T07:58:40.736Z,15.36
2018-12-22T07:59:42.505Z,15.36
2018-12-22T08:00:44.260Z,15.37
2018-12-22T08:01:47.132Z,15.38
2018-12-22T08:02:49.822Z,15.37
2018-12-22T08:03:51.571Z,15.36
2018-12-22T08:04:53.331Z,15.37
2018-12-22T08:05:55.088Z,15.36
2018-12-22T08:06:56.899Z,15.35
2018-12-22T08:07:58.810Z,15.37
2018-12-22T08:09:00.554Z,15.37
2018-12-22T08:10:02.488Z,15.36
2018-12-22T08:11:04.243Z,15.37
2018-12-22T08:12:06.004Z,15.36
2018-12-22T08:13:07.792Z,15.36
2018-12-22T08:14:10.053Z,15.36
2018-12-22T08:15:11.821Z,15.34
2018-12-22T08:16:13.583Z,15.35
2018-12-22T08:17:15.342Z,15.36
2018-12-22T08:18:18.302Z,15.36
2018-12-22T08:19:20.045Z,15.36
2018-12-22T08:20:21.818Z,15.36
2018-12-22T08:21:23.571Z,15.36
2018-12-22T08:22:25.335Z,15.36
2018-12-22T08:23:27.140Z,15.36
2018-12-22T08:24:28.944Z,15.35
2018-12-22T08:25:30.718Z,15.35
2018-12-22T08:26:32.479Z,15.35
2018-12-22T08:27:34.237Z,15.36
2018-12-22T08:28:36.055Z,15.34
2018-12-22T08:29:38.313Z,15.35
2018-12-22T08:30:43.758Z,15.35
2018-12-22T08:31:43.852Z,15.35
2018-12-22T08:32:45.606Z,15.36
2018-12-22T08:33:47.396Z,15.35
2018-12-22T08:34:49.266Z,15.35
2018-12-22T08:35:51.025Z,15.34
2018-12-22T08:36:54.457Z,15.34
2018-12-22T08:37:56.458Z,15.34
2018-12-22T08:38:58.245Z,15.34
2018-12-22T08:40:00.014Z,15.34
2018-12-22T08:41:01.766Z,15.34
2018-12-22T08:42:03.516Z,15.34
2018-12-22T08:43:05.292Z,15.35
2018-12-22T08:44:07.081Z,15.34
2018-12-22T08:45:08.849Z,15.34
2018-12-22T08:46:10.635Z,15.34
2018-12-22T08:47:12.384Z,15.33
2018-12-22T08:48:14.171Z,15.32
2018-12-22T08:49:15.968Z,15.34
2018-12-22T08:50:17.727Z,15.34
2018-12-22T08:51:19.486Z,15.34
2018-12-22T08:52:21.249Z,15.34
2018-12-22T08:53:23.006Z,15.33
2018-12-22T08:54:24.805Z,15.34
2018-12-22T08:55:26.591Z,15.35
2018-12-22T08:56:28.358Z,15.37
2018-12-22T08:57:30.112Z,15.39
2018-12-22T08:58:31.867Z,15.41
2018-12-22T08:59:33.665Z,15.46
2018-12-22T09:00:35.434Z,15.50
2018-12-22T09:01:37.203Z,15.53
2018-12-22T09:02:38.937Z,15.59
2018-12-22T09:03:40.749Z,15.63
2018-12-22T09:04:42.550Z,15.68
2018-12-22T09:05:44.319Z,15.72
2018-12-22T09:06:46.089Z,15.76
2018-12-22T09:07:47.852Z,15.79
2018-12-22T09:08:49.605Z,15.82
2018-12-22T09:09:51.841Z,15.85
2018-12-22T09:10:53.704Z,15.87
2018-12-22T09:11:55.462Z,15.88
2018-12-22T09:12:57.250Z,15.90
2018-12-22T09:13:59.021Z,15.91
2018-12-22T09:15:00.826Z,15.87
2018-12-22T09:16:03.050Z,15.89
2018-12-22T09:17:04.815Z,15.89
2018-12-22T09:18:08.420Z,15.89
2018-12-22T09:19:10.183Z,15.87
2018-12-22T09:20:11.947Z,15.85
2018-12-22T09:21:13.715Z,15.86
2018-12-22T09:22:15.491Z,15.85
2018-12-22T09:23:17.256Z,15.83
2018-12-22T09:24:19.059Z,15.82
2018-12-22T09:25:20.882Z,15.78
2018-12-22T09:26:22.642Z,15.77
2018-12-22T09:27:24.417Z,15.77
2018-12-22T09:28:26.182Z,15.74
2018-12-22T09:29:27.957Z,15.72
2018-12-22T09:30:29.757Z,15.71
2018-12-22T09:31:33.143Z,15.69
2018-12-22T09:32:36.319Z,15.68
2018-12-22T09:33:38.099Z,15.68
2018-12-22T09:34:40.738Z,15.66
2018-12-22T09:35:43.830Z,15.64
2018-12-22T09:36:46.001Z,15.63
2018-12-22T09:37:48.458Z,15.62
2018-12-22T09:38:51.071Z,15.62
2018-12-22T09:39:53.594Z,15.60
2018-12-22T09:40:56.709Z,15.61
2018-12-22T09:41:59.410Z,15.59
2018-12-22T09:43:02.531Z,15.60
2018-12-22T09:44:06.800Z,15.59
2018-12-22T09:45:09.343Z,15.58
2018-12-22T09:46:11.691Z,15.58
2018-12-22T09:47:14.090Z,15.56
2018-12-22T09:48:16.428Z,15.57
2018-12-22T09:49:19.055Z,15.57
2018-12-22T09:50:21.624Z,15.56
2018-12-22T09:51:24.438Z,15.53
2018-12-22T09:52:26.820Z,15.53
2018-12-22T09:53:29.528Z,15.52
2018-12-22T09:54:32.021Z,15.52
2018-12-22T09:55:34.489Z,15.51
2018-12-22T09:56:37.342Z,15.49
2018-12-22T09:57:40.261Z,15.50
2018-12-22T09:58:43.279Z,15.49
2018-12-22T09:59:45.063Z,15.48
2018-12-22T10:00:46.833Z,15.48
2018-12-22T10:01:48.635Z,15.47
2018-12-22T10:02:50.407Z,15.46
2018-12-22T10:03:52.220Z,15.47
2018-12-22T10:04:54.005Z,15.46
2018-12-22T10:05:55.785Z,15.45
2018-12-22T10:06:57.614Z,15.44
2018-12-22T10:07:59.623Z,15.45
2018-12-22T10:09:01.371Z,15.43
2018-12-22T10:10:03.135Z,15.42
2018-12-22T10:11:04.942Z,15.43
2018-12-22T10:12:06.737Z,15.41
2018-12-22T10:13:08.515Z,15.41
2018-12-22T10:14:10.305Z,15.40
2018-12-22T10:15:12.103Z,15.38
2018-12-22T10:16:13.897Z,15.37
2018-12-22T10:17:16.287Z,15.37
2018-12-22T10:18:18.065Z,15.37
2018-12-22T10:19:19.874Z,15.36
2018-12-22T10:20:21.650Z,15.36
2018-12-22T10:21:23.430Z,15.35
2018-12-22T10:22:25.237Z,15.34
2018-12-22T10:23:27.035Z,15.34
2018-12-22T10:24:28.815Z,15.34
2018-12-22T10:25:30.765Z,15.33
2018-12-22T10:26:32.527Z,15.33
2018-12-22T10:27:34.311Z,15.32
2018-12-22T10:28:36.114Z,15.33
2018-12-22T10:29:37.891Z,15.33
2018-12-22T10:30:39.662Z,15.34
2018-12-22T10:31:41.445Z,15.33
2018-12-22T10:32:43.230Z,15.33
2018-12-22T10:33:45.033Z,15.33
2018-12-22T10:34:46.798Z,15.32
2018-12-22T10:35:48.568Z,15.31
2018-12-22T10:36:50.343Z,15.32
2018-12-22T10:37:52.125Z,15.33
2018-12-22T10:38:53.892Z,15.33
2018-12-22T10:39:55.657Z,15.32
2018-12-22T10:40:57.415Z,15.32
2018-12-22T10:41:59.183Z,15.31
2018-12-22T10:43:00.957Z,15.33
2018-12-22T10:44:02.734Z,15.31
2018-12-22T10:45:04.521Z,15.31
2018-12-22T10:46:06.288Z,15.32
2018-12-22T10:47:09.191Z,15.31
2018-12-22T10:48:11.227Z,15.31
2018-12-22T10:49:13.743Z,15.31
2018-12-22T10:50:15.498Z,15.31
2018-12-22T10:51:24.247Z,15.31
2018-12-22T10:52:21.063Z,15.31
2018-12-22T10:53:22.842Z,15.31
2018-12-22T10:54:24.641Z,15.31
2018-12-22T10:55:26.426Z,15.31
2018-12-22T10:56:28.179Z,15.30
2018-12-22T10:57:30.199Z,15.30
2018-12-22T10:58:31.997Z,15.31
2018-12-22T10:59:33.753Z,15.31
2018-12-22T11:00:35.530Z,15.31
2018-12-22T11:01:37.307Z,15.31
2018-12-22T11:02:39.087Z,15.30
2018-12-22T11:03:40.898Z,15.30
2018-12-22T11:04:42.661Z,15.30
2018-12-22T11:05:44.419Z,15.30
2018-12-22T11:06:46.169Z,15.30
2018-12-22T11:07:47.946Z,15.29
2018-12-22T11:08:49.783Z,15.29
2018-12-22T11:09:51.612Z,15.29
2018-12-22T11:10:54.396Z,15.29
2018-12-22T11:11:56.171Z,15.29
2018-12-22T11:12:58.037Z,15.28
2018-12-22T11:13:59.937Z,15.27
2018-12-22T11:15:01.704Z,15.27
2018-12-22T11:16:03.453Z,15.26
2018-12-22T11:17:05.205Z,15.26
2018-12-22T11:18:06.974Z,15.26
2018-12-22T11:19:08.764Z,15.27
2018-12-22T11:20:10.553Z,15.27
2018-12-22T11:21:12.325Z,15.27
2018-12-22T11:22:14.109Z,15.26
2018-12-22T11:23:20.409Z,15.24
2018-12-22T11:24:19.721Z,15.23
2018-12-22T11:25:21.515Z,15.25
2018-12-22T11:26:23.318Z,15.28
2018-12-22T11:27:25.093Z,15.27
2018-12-22T11:28:26.854Z,15.28
2018-12-22T11:29:29.316Z,15.28
2018-12-22T11:30:31.077Z,15.29
2018-12-22T11:31:35.152Z,15.29
2018-12-22T11:32:36.664Z,15.29
2018-12-22T11:33:38.451Z,15.34
2018-12-22T11:34:40.251Z,15.39
2018-12-22T11:35:42.026Z,15.45
2018-12-22T11:36:43.783Z,15.52
2018-12-22T11:37:45.551Z,15.58
2018-12-22T11:38:47.351Z,15.64
2018-12-22T11:39:49.142Z,15.69
2018-12-22T11:40:50.929Z,15.74
2018-12-22T11:41:53.762Z,15.78
2018-12-22T11:42:55.563Z,15.82
2018-12-22T11:43:57.339Z,15.86
2018-12-22T11:44:59.124Z,15.89
2018-12-22T11:46:00.905Z,15.95
2018-12-22T11:47:02.693Z,15.97
2018-12-22T11:48:04.898Z,16.01
2018-12-22T11:49:06.653Z,16.02
2018-12-22T11:50:08.456Z,16.04
2018-12-22T11:51:10.258Z,16.06
2018-12-22T11:52:12.034Z,16.08
2018-12-22T11:53:13.797Z,16.08
2018-12-22T11:54:15.667Z,16.09
2018-12-22T11:55:17.473Z,16.10
2018-12-22T11:56:19.245Z,16.08
2018-12-22T11:57:21.042Z,16.06
2018-12-22T11:58:22.809Z,16.05
2018-12-22T11:59:24.566Z,16.03
2018-12-22T12:00:26.376Z,16.02
2018-12-22T12:01:28.124Z,16.00
2018-12-22T12:02:29.890Z,15.99
2018-12-22T12:03:31.645Z,15.98
2018-12-22T12:04:33.419Z,15.95
2018-12-22T12:05:35.198Z,15.96
2018-12-22T12:06:37.105Z,15.93
2018-12-22T12:07:38.874Z,15.90
2018-12-22T12:08:40.651Z,15.89
2018-12-22T12:09:42.421Z,15.87
2018-12-22T12:10:44.226Z,15.84
2018-12-22T12:11:45.978Z,15.84
2018-12-22T12:12:47.719Z,15.82
2018-12-22T12:13:49.495Z,15.80
2018-12-22T12:14:51.249Z,15.78
2018-12-22T12:15:53.054Z,15.77
2018-12-22T12:16:55.061Z,15.74
2018-12-22T12:17:57.016Z,15.74
2018-12-22T12:18:58.791Z,15.73
2018-12-22T12:20:00.553Z,15.71
2018-12-22T12:21:02.370Z,15.70
2018-12-22T12:22:04.149Z,15.69
2018-12-22T12:23:05.917Z,15.67
2018-12-22T12:24:07.663Z,15.66
2018-12-22T12:25:10.066Z,15.64
2018-12-22T12:26:11.923Z,15.63
2018-12-22T12:27:13.767Z,15.61
2018-12-22T12:28:15.523Z,15.59
2018-12-22T12:29:17.363Z,15.59
2018-12-22T12:30:19.135Z,15.57
2018-12-22T12:31:21.062Z,15.57
2018-12-22T12:32:22.824Z,15.56
2018-12-22T12:33:25.908Z,15.54
2018-12-22T12:34:27.686Z,15.52
2018-12-22T12:35:29.889Z,15.52
2018-12-22T12:36:31.664Z,15.51
2018-12-22T12:37:33.442Z,15.49
2018-12-22T12:38:35.190Z,15.47
2018-12-22T12:39:36.954Z,15.48
2018-12-22T12:40:38.717Z,15.46
2018-12-22T12:41:40.544Z,15.45
2018-12-22T12:42:42.337Z,15.44
2018-12-22T12:43:45.122Z,15.43
2018-12-22T12:44:46.994Z,15.42
2018-12-22T12:45:48.879Z,15.42
2018-12-22T12:46:50.686Z,15.41
2018-12-22T12:47:53.729Z,15.40
2018-12-22T12:48:55.584Z,15.40
2018-12-22T12:49:57.337Z,15.39
2018-12-22T12:50:59.085Z,15.38
2018-12-22T12:52:00.900Z,15.37
2018-12-22T12:53:09.515Z,15.37
2018-12-22T12:54:06.457Z,15.36
2018-12-22T12:55:08.254Z,15.35
2018-12-22T12:56:09.991Z,15.34
2018-12-22T12:57:11.809Z,15.34
2018-12-22T12:58:13.579Z,15.33
2018-12-22T12:59:15.898Z,15.35
2018-12-22T13:00:18.530Z,15.38
2018-12-22T13:01:20.299Z,15.38
2018-12-22T13:02:22.093Z,15.42
2018-12-22T13:03:23.865Z,15.44
2018-12-22T13:04:26.441Z,15.49
2018-12-22T13:05:28.767Z,15.53
2018-12-22T13:06:31.941Z,15.57
2018-12-22T13:07:34.026Z,15.63
2018-12-22T13:08:35.894Z,15.68
2018-12-22T13:09:37.651Z,15.72
2018-12-22T13:10:39.395Z,15.76
2018-12-22T13:11:41.156Z,15.80
2018-12-22T13:12:42.953Z,15.85
2018-12-22T13:13:44.707Z,15.89
2018-12-22T13:14:52.912Z,15.93
2018-12-22T13:15:54.686Z,15.96
2018-12-22T13:16:57.845Z,15.98
2018-12-22T13:17:59.627Z,16.00
2018-12-22T13:19:01.384Z,16.01
2018-12-22T13:20:03.156Z,16.02